createdAt,value
2023-02-22T00:01:42.109Z,90
2023-02-22T00:05:07.374Z,90
2023-02-22T00:08:32.676Z,91
2023-02-22T00:11:58.026Z,91
2023-02-22T00:15:23.288Z,91
2023-02-22T00:18:48.584Z,92
2023-02-22T00:22:13.898Z,92
2023-02-22T00:25:39.216Z,92
2023-02-22T00:29:04.521Z,92
2023-02-22T00:32:29.895Z,92
2023-02-22T00:35:55.185Z,92
2023-02-22T00:39:20.476Z,92
2023-02-22T00:42:45.733Z,91
2023-02-22T00:46:11.202Z,91
2023-02-22T00:49:36.388Z,91
2023-02-22T00:53:01.677Z,90
2023-02-22T00:56:27.029Z,91
2023-02-22T00:59:52.339Z,91
2023-02-22T01:03:17.652Z,91
2023-02-22T01:06:42.932Z,91
2023-02-22T01:10:08.966Z,91
2023-02-22T01:13:35.530Z,90
2023-02-22T01:17:01.008Z,90
2023-02-22T01:20:26.348Z,90
2023-02-22T01:23:51.639Z,90
2023-02-22T01:27:17.000Z,90
2023-02-22T01:30:42.383Z,90
2023-02-22T01:34:07.653Z,90
2023-02-22T01:37:33.007Z,90
2023-02-22T01:40:58.317Z,90
2023-02-22T01:44:23.596Z,89
2023-02-22T01:47:48.902Z,89
2023-02-22T01:51:14.453Z,89
2023-02-22T01:54:39.592Z,89
2023-02-22T01:58:04.902Z,90
2023-02-22T02:01:30.224Z,90
2023-02-22T02:04:55.568Z,90
2023-02-22T02:08:20.841Z,91
2023-02-22T02:11:46.176Z,91
2023-02-22T02:15:11.502Z,91
2023-02-22T02:18:36.776Z,91
2023-02-22T02:22:02.105Z,91
2023-02-22T02:25:27.394Z,91
2023-02-22T02:28:52.706Z,91
2023-02-22T02:32:18.154Z,91
2023-02-22T02:35:43.308Z,91
2023-02-22T02:39:08.601Z,91
2023-02-22T02:42:33.907Z,91
2023-02-22T02:45:59.221Z,91
2023-02-22T02:49:24.489Z,91
2023-02-22T02:52:49.817Z,91
2023-02-22T02:56:15.175Z,92
2023-02-22T02:59:40.463Z,92
2023-02-22T03:03:05.775Z,92
2023-02-22T03:06:31.076Z,91
2023-02-22T03:09:56.385Z,91
2023-02-22T03:13:21.718Z,91
2023-02-22T03:16:47.048Z,90
2023-02-22T03:20:12.358Z,90
2023-02-22T03:23:37.630Z,91
2023-02-22T03:27:03.007Z,91
2023-02-22T03:30:28.310Z,91
2023-02-22T03:33:53.598Z,91
2023-02-22T03:37:18.967Z,91
2023-02-22T03:40:44.256Z,91
2023-02-22T03:44:09.587Z,91
2023-02-22T03:47:34.870Z,91
2023-02-22T03:51:00.199Z,91
2023-02-22T03:54:25.547Z,91
2023-02-22T03:57:50.853Z,90
2023-02-22T04:01:16.495Z,91
2023-02-22T04:04:41.636Z,91
2023-02-22T04:08:06.845Z,90
2023-02-22T04:11:32.182Z,90
2023-02-22T04:14:57.487Z,90
2023-02-22T04:18:22.801Z,90
2023-02-22T04:21:48.106Z,91
2023-02-22T04:25:13.407Z,92
2023-02-22T04:28:38.712Z,91
2023-02-22T04:32:04.018Z,91
2023-02-22T04:35:35.381Z,91
2023-02-22T04:38:58.377Z,91
2023-02-22T04:42:23.680Z,91
2023-02-22T04:45:49.045Z,91
2023-02-22T04:49:14.297Z,92
2023-02-22T04:52:39.562Z,91
2023-02-22T04:56:04.860Z,91
2023-02-22T04:59:30.127Z,91
2023-02-22T05:02:55.484Z,91
2023-02-22T05:06:20.673Z,91
2023-02-22T05:09:45.881Z,91
2023-02-22T05:13:11.171Z,90
2023-02-22T05:16:36.415Z,90
2023-02-22T05:20:01.746Z,90
2023-02-22T05:23:27.080Z,89
2023-02-22T05:26:52.365Z,89
2023-02-22T05:30:17.694Z,90
2023-02-22T05:33:43.032Z,90
2023-02-22T05:37:08.376Z,90
2023-02-22T05:40:33.658Z,88
2023-02-22T05:43:58.986Z,89
2023-02-22T05:47:24.275Z,90
2023-02-22T05:50:49.572Z,91
2023-02-22T05:54:14.939Z,92
2023-02-22T05:57:40.226Z,92
2023-02-22T06:01:05.556Z,92
2023-02-22T06:04:30.920Z,92
2023-02-22T06:07:56.257Z,92
2023-02-22T06:11:21.561Z,90
2023-02-22T06:14:46.908Z,87
2023-02-22T06:18:12.255Z,86
2023-02-22T06:21:37.553Z,85
2023-02-22T06:25:02.890Z,86
2023-02-22T06:28:28.215Z,86
2023-02-22T06:31:53.566Z,86
2023-02-22T06:35:18.833Z,86
2023-02-22T06:38:44.113Z,86
2023-02-22T06:42:09.480Z,87
2023-02-22T06:45:34.770Z,87
2023-02-22T06:49:00.016Z,87
2023-02-22T06:52:25.402Z,87
2023-02-22T06:55:50.789Z,87
2023-02-22T06:59:16.085Z,87
2023-02-22T07:02:41.389Z,88
2023-02-22T07:06:06.631Z,88
2023-02-22T07:09:31.917Z,88
2023-02-22T07:12:57.175Z,88
2023-02-22T07:16:22.493Z,89
2023-02-22T07:19:47.796Z,89
2023-02-22T07:23:14.786Z,89
2023-02-22T07:26:39.858Z,89
2023-02-22T07:30:05.131Z,91
2023-02-22T07:33:30.438Z,92
2023-02-22T07:36:55.815Z,93
2023-02-22T07:40:21.375Z,93
2023-02-22T07:43:46.590Z,93
2023-02-22T07:47:11.844Z,93
2023-02-22T07:50:37.207Z,93
2023-02-22T07:54:03.487Z,93
2023-02-22T07:57:28.734Z,93
2023-02-22T08:00:53.992Z,92
2023-02-22T08:04:19.277Z,92
2023-02-22T08:07:44.518Z,92
2023-02-22T08:11:09.831Z,92
2023-02-22T08:14:35.111Z,92
2023-02-22T08:18:00.387Z,92
2023-02-22T08:21:25.633Z,92
2023-02-22T08:24:50.923Z,91
2023-02-22T08:28:16.209Z,91
2023-02-22T08:31:41.475Z,91
2023-02-22T08:35:06.705Z,91
2023-02-22T08:38:32.057Z,91
2023-02-22T08:41:57.314Z,91
2023-02-22T08:45:22.594Z,91
2023-02-22T08:48:47.821Z,91
2023-02-22T08:52:13.066Z,90
2023-02-22T08:55:38.338Z,90
2023-02-22T08:59:03.597Z,90
2023-02-22T09:02:28.964Z,89
2023-02-22T09:05:54.264Z,89
2023-02-22T09:09:19.478Z,89
2023-02-22T09:12:44.745Z,88
2023-02-22T09:16:09.995Z,88
2023-02-22T09:19:35.251Z,88
2023-02-22T09:23:00.502Z,87
2023-02-22T09:26:25.720Z,87
2023-02-22T09:29:50.998Z,86
2023-02-22T09:33:16.362Z,86
2023-02-22T09:36:41.556Z,87
2023-02-22T09:40:06.775Z,87
2023-02-22T09:43:32.011Z,87
2023-02-22T09:46:57.318Z,86
2023-02-22T09:50:22.581Z,84
2023-02-22T09:53:47.870Z,84
2023-02-22T09:57:13.113Z,84
2023-02-22T10:00:38.371Z,83
2023-02-22T10:04:03.676Z,84
2023-02-22T10:07:28.886Z,83
2023-02-22T10:10:54.154Z,83
2023-02-22T10:14:19.359Z,83
2023-02-22T10:17:44.622Z,82
2023-02-22T10:21:09.875Z,82
2023-02-22T10:24:35.115Z,82
2023-02-22T10:28:00.443Z,82
2023-02-22T10:31:25.673Z,81
2023-02-22T10:34:50.853Z,81
2023-02-22T10:38:16.134Z,80
2023-02-22T10:41:41.391Z,79
2023-02-22T10:45:06.734Z,81
2023-02-22T10:48:31.909Z,81
2023-02-22T10:51:57.178Z,80
2023-02-22T10:55:22.433Z,79
2023-02-22T10:58:47.700Z,79
2023-02-22T11:02:12.995Z,79
2023-02-22T11:05:38.233Z,79
2023-02-22T11:09:03.486Z,79
2023-02-22T11:12:28.802Z,79
2023-02-22T11:15:54.079Z,78
2023-02-22T11:19:19.465Z,79
2023-02-22T11:22:44.593Z,79
2023-02-22T11:26:09.854Z,79
2023-02-22T11:29:35.098Z,78
2023-02-22T11:33:00.368Z,79
2023-02-22T11:36:25.674Z,77
2023-02-22T11:39:50.918Z,77
2023-02-22T11:43:16.180Z,77
2023-02-22T11:46:41.459Z,78
2023-02-22T11:50:06.718Z,77
2023-02-22T11:53:32.029Z,77
2023-02-22T11:56:57.270Z,76
2023-02-22T12:00:22.547Z,75
2023-02-22T12:03:47.913Z,75
2023-02-22T12:07:13.094Z,75
2023-02-22T12:10:38.394Z,77
2023-02-22T12:14:03.643Z,75
2023-02-22T12:17:28.897Z,76
2023-02-22T12:20:55.607Z,75
2023-02-22T12:24:19.446Z,75
2023-02-22T12:27:44.813Z,74
2023-02-22T12:31:10.083Z,73
2023-02-22T12:34:35.283Z,74
2023-02-22T12:38:00.541Z,74
2023-02-22T12:41:25.814Z,75
2023-02-22T12:44:51.117Z,75
2023-02-22T12:48:16.361Z,73
2023-02-22T12:51:41.628Z,74
2023-02-22T12:55:06.942Z,75
2023-02-22T12:58:32.336Z,74
2023-02-22T13:01:57.692Z,74
2023-02-22T13:05:23.043Z,73
2023-02-22T13:08:48.342Z,73
2023-02-22T13:12:13.774Z,74
2023-02-22T13:15:39.144Z,72
2023-02-22T13:19:04.554Z,74
2023-02-22T13:22:29.797Z,73
2023-02-22T13:25:55.119Z,72
2023-02-22T13:29:20.447Z,73
2023-02-22T13:32:45.748Z,72
2023-02-22T13:36:11.113Z,73
2023-02-22T13:39:36.564Z,73
2023-02-22T13:43:01.868Z,72
2023-02-22T13:46:27.212Z,72
2023-02-22T13:49:52.478Z,72
2023-02-22T13:53:17.816Z,72
2023-02-22T13:56:43.088Z,71
2023-02-22T14:00:08.447Z,71
2023-02-22T14:03:33.778Z,71
2023-02-22T14:06:59.109Z,71
2023-02-22T14:10:24.565Z,71
2023-02-22T14:13:50.039Z,72
2023-02-22T14:17:15.355Z,73
2023-02-22T14:20:40.761Z,73
2023-02-22T14:24:06.195Z,71
2023-02-22T14:27:32.191Z,73
2023-02-22T14:30:57.535Z,72
2023-02-22T15:05:39.660Z,71
2023-02-22T15:09:04.841Z,71
2023-02-22T15:12:30.096Z,70
2023-02-22T15:15:55.404Z,69
2023-02-22T15:19:20.619Z,70
2023-02-22T15:22:46.053Z,71
2023-02-22T15:26:11.839Z,71
2023-02-22T15:29:37.339Z,71
2023-02-22T15:33:04.594Z,71
2023-02-22T15:36:28.002Z,72
2023-02-22T15:39:53.373Z,72
2023-02-22T15:43:18.875Z,71
2023-02-22T15:46:44.551Z,71
2023-02-22T15:50:10.242Z,71
2023-02-22T15:53:35.868Z,72
2023-02-22T15:57:01.505Z,73
2023-02-22T16:00:27.147Z,74
2023-02-22T16:03:52.863Z,75
2023-02-22T16:07:18.496Z,75
2023-02-22T16:10:44.192Z,75
2023-02-22T16:14:09.961Z,75
2023-02-22T16:17:35.839Z,75
2023-02-22T16:21:01.392Z,76
2023-02-22T16:24:27.156Z,75
2023-02-22T16:27:52.881Z,76
2023-02-22T16:31:19.089Z,77
2023-02-22T16:34:44.271Z,77
2023-02-22T16:38:09.859Z,77
2023-02-22T16:41:36.074Z,77
2023-02-22T16:45:01.791Z,76
2023-02-22T16:48:27.365Z,76
2023-02-22T16:51:53.043Z,77
2023-02-22T16:55:18.939Z,77
2023-02-22T16:58:44.672Z,77
2023-02-22T17:02:10.293Z,78
2023-02-22T17:05:35.873Z,77
2023-02-22T17:09:01.072Z,77
2023-02-22T17:12:26.336Z,77
2023-02-22T17:15:51.676Z,77
2023-02-22T17:19:16.866Z,77
2023-02-22T17:22:43.051Z,78
2023-02-22T17:26:08.313Z,79
2023-02-22T17:29:35.196Z,79
2023-02-22T17:33:01.937Z,80
2023-02-22T17:36:28.959Z,80
2023-02-22T17:39:55.912Z,79
2023-02-22T17:43:22.858Z,80
2023-02-22T17:46:49.904Z,79
2023-02-22T17:50:17.362Z,80
2023-02-22T17:53:44.359Z,80
2023-02-22T17:57:11.429Z,81
2023-02-22T18:00:38.350Z,80
2023-02-22T18:04:05.215Z,81
2023-02-22T18:07:32.174Z,79
2023-02-22T18:10:59.240Z,81
2023-02-22T18:14:26.276Z,80
2023-02-22T18:17:53.510Z,80
2023-02-22T18:21:20.642Z,81
2023-02-22T18:24:47.579Z,81
2023-02-22T18:28:14.930Z,80
2023-02-22T18:31:42.132Z,81
2023-02-22T18:35:08.844Z,81
2023-02-22T18:38:35.829Z,81
2023-02-22T18:42:03.510Z,81
2023-02-22T18:45:30.931Z,82
2023-02-22T18:48:58.002Z,83
2023-02-22T18:52:25.053Z,83
2023-02-22T18:55:52.452Z,83
2023-02-22T18:59:19.625Z,83
2023-02-22T19:02:47.296Z,83
2023-02-22T19:06:15.075Z,81
2023-02-22T19:09:42.514Z,81
2023-02-22T19:13:10.007Z,81
2023-02-22T19:16:37.381Z,81
2023-02-22T19:20:04.576Z,81
2023-02-22T19:23:33.159Z,81
2023-02-22T19:26:59.737Z,81
2023-02-22T19:30:27.321Z,82
2023-02-22T19:33:55.054Z,82
2023-02-22T19:37:22.961Z,82
2023-02-22T19:40:50.550Z,82
2023-02-22T19:44:17.963Z,82
2023-02-22T19:47:45.300Z,83
2023-02-22T19:51:12.912Z,83
2023-02-22T19:54:40.397Z,83
2023-02-22T19:58:07.857Z,83
2023-02-22T20:01:35.738Z,83
2023-02-22T20:05:03.789Z,84
2023-02-22T20:08:31.846Z,84
2023-02-22T20:11:59.914Z,84
2023-02-22T20:15:27.837Z,85
2023-02-22T20:18:55.779Z,85
2023-02-22T20:22:23.637Z,84
2023-02-22T20:25:51.647Z,84
2023-02-22T20:29:19.968Z,84
2023-02-22T20:32:50.885Z,84
2023-02-22T20:36:19.317Z,85
2023-02-22T20:39:47.251Z,84
2023-02-22T20:43:14.956Z,84
2023-02-22T20:46:42.269Z,84
2023-02-22T20:50:10.020Z,84
2023-02-22T20:53:35.617Z,84
2023-02-22T20:57:01.374Z,84
2023-02-22T21:00:27.052Z,84
2023-02-22T21:03:52.826Z,84
2023-02-22T21:07:18.603Z,84
2023-02-22T21:10:44.264Z,84
2023-02-22T21:14:10.036Z,84
2023-02-22T21:17:35.783Z,84
2023-02-22T21:21:01.548Z,84
2023-02-22T21:24:27.446Z,84
2023-02-22T21:27:52.995Z,84
2023-02-22T21:31:19.152Z,85
2023-02-22T21:34:44.462Z,85
2023-02-22T21:38:10.277Z,85
2023-02-22T21:41:36.142Z,85
2023-02-22T21:45:01.709Z,85
2023-02-22T21:48:27.448Z,85
2023-02-22T21:51:53.221Z,85
2023-02-22T21:55:18.953Z,86
2023-02-22T21:58:44.794Z,85
2023-02-22T22:02:10.492Z,85
2023-02-22T22:05:36.225Z,85
2023-02-22T22:09:02.022Z,85
2023-02-22T22:12:34.126Z,86
2023-02-22T22:15:53.625Z,86
2023-02-22T22:19:19.279Z,86
2023-02-22T22:22:45.028Z,86
2023-02-22T22:26:10.806Z,86
2023-02-22T22:29:36.587Z,86
2023-02-22T22:33:02.303Z,86
2023-02-22T22:36:28.017Z,86
2023-02-22T22:39:53.758Z,85
2023-02-22T22:43:19.440Z,86
2023-02-22T22:46:45.109Z,86
2023-02-22T22:50:10.886Z,86
2023-02-22T22:53:36.620Z,85
2023-02-22T22:57:02.333Z,86
2023-02-22T23:00:28.074Z,86
2023-02-22T23:03:53.810Z,86
2023-02-22T23:07:19.619Z,86
2023-02-22T23:10:45.287Z,86
2023-02-22T23:14:10.972Z,86
2023-02-22T23:17:36.684Z,86
2023-02-22T23:21:02.393Z,86
2023-02-22T23:24:28.279Z,87
2023-02-22T23:27:53.795Z,87
2023-02-22T23:31:19.794Z,87
2023-02-22T23:34:45.219Z,87
2023-02-22T23:38:11.276Z,86
2023-02-22T23:41:36.670Z,86
2023-02-22T23:45:02.354Z,87
2023-02-22T23:48:28.055Z,87
2023-02-22T23:51:53.833Z,87
2023-02-22T23:55:19.662Z,87
2023-02-22T23:58:45.429Z,88
